Etusivu
METAR-TAF:

METAR-TAF

Lentoasemat :

Cayo Coco, Kuuba

Leveyspiiri: 22-27-40N, Pituuspiiri: 078-19-42W, korkeus merenpinnasta: 4 m

Tämänhetkinen sää

Tämä raportti tehtiin 1 tunti ja 1 minuuttia sitten, kello 12.50 UTC
Tuuli 9 kn idästä
Lämpötila 24°C
Kosteus 78%
Ilmanpaine 1019 hPa
Näkyvyys: 9000 m
Hajanaisia pilviä 2000 ft:n korkeudessa

METAR: MUCC 041250Z 08009KT 9000 SCT020 24/20 Q1019

Aika: 08:51 (13:51 UTC)

Sääennuste

Tämä raportti tehtiin 2 tuntia ja 51 minuuttia sitten, kello 11.00 UTC
Ennuste voimassa 04. päivästä klo 12 UTC - 05. päivään klo 12 UTC
Tuuli 12 kn idästä
Näkyvyys: 9000 m
Hajanaisia pilviä 2000 ft:n korkeudessa

TAF: MUCC 041100Z 0412/0512 08012KT 9000 SCT020

Säähavainnot ja -ennusteet yli 4000 lentoasemalta (METAR- ja TAF-raportit).

Käytössä olevat sääasemat on merkitty karttaan keltaisilla ja punaisilla pisteillä.

Aseta hiiri pisteen päälle nähdäksesi sääaseman nimen.

Klikkaa sitten nähdäksesi säähavainnot ja -ennusteet.

Kartan vaihtaminen: klikkaa mustalla rastilla varustettuja vihreitä pisteitä, niin voit zoomata sisään; viivalla varustettua vihreää pistettä, niin voit zoomata ulos tai vihreitä nuolia, niin pääset viereisille kartoille.


METAR-TAF: